createdAt,value
2023-05-21T00:00:05.342Z,122.53
2023-05-21T00:01:05.372Z,121.46
2023-05-21T00:02:05.437Z,123.71
2023-05-21T00:03:05.595Z,122.36
2023-05-21T00:04:05.634Z,124.81
2023-05-21T00:05:05.619Z,123.88
2023-05-21T00:06:05.684Z,123.41
2023-05-21T00:07:05.710Z,124.46
2023-05-21T00:08:05.803Z,121.94
2023-05-21T00:09:05.838Z,124.01
2023-05-21T00:10:05.884Z,120.71
2023-05-21T00:11:05.957Z,124.12
2023-05-21T00:12:06.002Z,121.32
2023-05-21T00:13:06.084Z,123.24
2023-05-21T00:14:06.127Z,121.41
2023-05-21T00:15:06.310Z,124.68
2023-05-21T00:16:06.278Z,124.67
2023-05-21T00:17:06.317Z,121.30
2023-05-21T00:18:06.408Z,120.06
2023-05-21T00:19:06.626Z,120.50
2023-05-21T00:20:06.485Z,122.92
2023-05-21T00:21:06.548Z,122.49
2023-05-21T00:22:06.602Z,120.88
2023-05-21T00:23:07.312Z,121.77
2023-05-21T00:24:06.806Z,118.72
2023-05-21T00:25:06.803Z,121.77
2023-05-21T00:26:06.841Z,122.01
2023-05-21T00:27:06.904Z,122.41
2023-05-21T00:28:06.963Z,122.09
2023-05-21T00:29:07.808Z,119.73
2023-05-21T00:30:07.093Z,120.40
2023-05-21T00:31:07.164Z,121.47
2023-05-21T00:32:07.253Z,122.93
2023-05-21T00:33:07.288Z,120.46
2023-05-21T00:34:07.322Z,120.15
2023-05-21T00:35:07.400Z,122.16
2023-05-21T00:36:08.298Z,124.33
2023-05-21T00:37:07.498Z,119.49
2023-05-21T00:38:07.571Z,121.39
2023-05-21T00:39:07.675Z,120.74
2023-05-21T00:40:07.731Z,122.23
2023-05-21T00:41:07.746Z,123.58
2023-05-21T00:42:07.788Z,118.28
2023-05-21T00:43:07.902Z,120.20
2023-05-21T00:44:07.920Z,119.15
2023-05-21T00:45:07.990Z,120.25
2023-05-21T00:46:08.085Z,120.88
2023-05-21T00:47:08.109Z,120.27
2023-05-21T00:48:08.218Z,120.53
2023-05-21T00:49:08.212Z,118.95
2023-05-21T00:50:08.265Z,118.95
2023-05-21T00:51:08.323Z,121.81
2023-05-21T00:52:08.392Z,118.51
2023-05-21T00:53:08.436Z,117.81
2023-05-21T00:54:08.481Z,120.49
2023-05-21T00:55:08.538Z,121.95
2023-05-21T00:56:09.309Z,120.09
2023-05-21T00:57:08.644Z,121.49
2023-05-21T00:58:08.695Z,121.52
2023-05-21T00:59:08.739Z,120.43
2023-05-21T01:00:08.854Z,119.56
2023-05-21T01:01:08.868Z,120.81
2023-05-21T01:02:08.946Z,116.49
2023-05-21T01:03:09.002Z,118.03
2023-05-21T01:04:09.002Z,121.98
2023-05-21T01:05:09.065Z,119.31
2023-05-21T01:06:09.128Z,119.16
2023-05-21T01:07:09.174Z,123.61
2023-05-21T01:08:09.193Z,117.49
2023-05-21T01:09:09.338Z,118.02
2023-05-21T01:10:09.309Z,119.53
2023-05-21T01:11:09.370Z,118.56
2023-05-21T01:12:09.419Z,119.68
2023-05-21T01:13:09.469Z,119.43
2023-05-21T01:14:09.530Z,116.51
2023-05-21T01:15:09.590Z,118.05
2023-05-21T01:16:09.649Z,119.56
2023-05-21T01:17:10.513Z,117.09
2023-05-21T01:18:09.780Z,116.43
2023-05-21T01:19:09.997Z,116.70
2023-05-21T01:20:09.871Z,119.74
2023-05-21T01:21:09.924Z,115.00
2023-05-21T01:22:09.984Z,115.76
2023-05-21T01:23:10.014Z,114.44
2023-05-21T01:24:10.061Z,116.40
2023-05-21T01:25:10.096Z,118.10
2023-05-21T01:26:10.174Z,117.05
2023-05-21T01:27:10.222Z,117.52
2023-05-21T01:28:10.283Z,118.86
2023-05-21T01:29:10.342Z,115.97
2023-05-21T01:30:10.390Z,117.81
2023-05-21T01:31:10.467Z,118.65
2023-05-21T01:32:10.520Z,117.49
2023-05-21T01:33:10.662Z,116.64
2023-05-21T01:34:10.662Z,117.92
2023-05-21T01:35:10.694Z,117.84
2023-05-21T01:36:10.726Z,117.40
2023-05-21T01:37:10.791Z,117.14
2023-05-21T01:38:10.864Z,111.87
2023-05-21T01:39:10.918Z,114.83
2023-05-21T01:40:10.971Z,113.96
2023-05-21T01:41:11.040Z,116.87
2023-05-21T01:42:11.087Z,116.78
2023-05-21T01:43:11.149Z,116.17
2023-05-21T01:44:11.190Z,117.94
2023-05-21T01:45:11.334Z,118.69
2023-05-21T01:46:11.360Z,115.89
2023-05-21T01:47:11.368Z,115.44
2023-05-21T01:48:11.435Z,118.13
2023-05-21T01:49:11.456Z,116.39
2023-05-21T01:50:11.503Z,115.51
2023-05-21T01:51:12.335Z,116.16
2023-05-21T01:52:11.601Z,116.27
2023-05-21T01:53:11.663Z,115.51
2023-05-21T01:54:11.693Z,116.56
2023-05-21T01:55:11.819Z,118.33
2023-05-21T01:56:11.790Z,117.80
2023-05-21T01:57:11.850Z,120.42
2023-05-21T01:58:11.911Z,118.00
2023-05-21T01:59:12.010Z,115.64
2023-05-21T02:00:12.046Z,115.92
2023-05-21T02:01:12.053Z,112.66
2023-05-21T02:02:12.172Z,115.87
2023-05-21T02:03:12.222Z,117.59
2023-05-21T02:04:12.249Z,114.37
2023-05-21T02:05:12.270Z,116.46
2023-05-21T02:06:12.328Z,116.61
2023-05-21T02:07:12.384Z,115.97
2023-05-21T02:08:12.430Z,118.45
2023-05-21T02:09:12.460Z,112.61
2023-05-21T02:10:12.520Z,118.66
2023-05-21T02:11:12.852Z,114.57
2023-05-21T02:12:12.619Z,112.77
2023-05-21T02:13:12.684Z,114.88
2023-05-21T02:14:12.726Z,112.52
2023-05-21T02:15:12.768Z,113.80
2023-05-21T02:16:12.880Z,114.39
2023-05-21T02:17:12.870Z,116.23
2023-05-21T02:18:12.939Z,115.58
2023-05-21T02:19:13.017Z,115.28
2023-05-21T02:20:12.996Z,117.06
2023-05-21T02:21:13.028Z,118.31
2023-05-21T02:22:13.019Z,113.24
2023-05-21T02:23:13.152Z,115.23
2023-05-21T02:24:13.106Z,115.01
2023-05-21T02:25:13.122Z,117.50
2023-05-21T02:26:13.116Z,115.41
2023-05-21T02:27:13.139Z,114.50
2023-05-21T02:28:13.126Z,113.63
2023-05-21T02:29:13.116Z,114.18
2023-05-21T02:30:13.111Z,115.21
2023-05-21T02:31:13.116Z,116.28
2023-05-21T02:32:13.121Z,113.51
2023-05-21T02:33:13.116Z,116.48
2023-05-21T02:34:13.126Z,112.75
2023-05-21T02:35:13.135Z,113.78
2023-05-21T02:36:13.307Z,116.62
2023-05-21T02:37:13.183Z,114.83
2023-05-21T02:38:13.202Z,114.56
2023-05-21T02:39:13.249Z,114.52
2023-05-21T02:40:13.367Z,115.00
2023-05-21T02:41:13.875Z,114.97
2023-05-21T02:42:13.296Z,115.28
2023-05-21T02:43:15.405Z,115.58
2023-05-21T02:44:13.334Z,114.59
2023-05-21T02:45:13.328Z,114.42
2023-05-21T02:46:13.424Z,114.80
2023-05-21T02:47:13.311Z,113.87
2023-05-21T02:48:13.488Z,112.82
2023-05-21T02:49:13.302Z,116.88
2023-05-21T02:50:13.367Z,113.75
2023-05-21T02:51:13.274Z,112.81
2023-05-21T02:52:13.279Z,113.02
2023-05-21T02:53:13.262Z,113.22
2023-05-21T02:54:13.260Z,109.22
2023-05-21T02:55:13.270Z,111.62
2023-05-21T02:56:13.245Z,114.83
2023-05-21T02:57:13.297Z,113.76
2023-05-21T02:58:13.230Z,113.83
2023-05-21T02:59:13.224Z,116.33
2023-05-21T03:00:13.218Z,113.35
2023-05-21T03:01:13.306Z,110.38
2023-05-21T03:02:13.240Z,111.74
2023-05-21T03:03:13.299Z,115.41
2023-05-21T03:04:13.180Z,112.34
2023-05-21T03:05:13.190Z,110.30
2023-05-21T03:06:13.161Z,110.34
2023-05-21T03:07:13.164Z,111.94
2023-05-21T03:08:13.165Z,113.42
2023-05-21T03:09:13.150Z,110.44
2023-05-21T03:10:13.147Z,111.28
2023-05-21T03:11:13.142Z,113.10
2023-05-21T03:12:13.139Z,111.23
2023-05-21T03:13:13.153Z,111.94
2023-05-21T03:14:13.109Z,110.52
2023-05-21T03:15:13.189Z,108.89
2023-05-21T03:16:13.139Z,110.63
2023-05-21T03:17:13.094Z,111.91
2023-05-21T03:18:13.143Z,111.27
2023-05-21T03:19:13.108Z,108.50
2023-05-21T03:20:13.082Z,109.92
2023-05-21T03:21:13.070Z,110.95
2023-05-21T03:22:13.062Z,111.24
2023-05-21T03:23:15.533Z,109.25
2023-05-21T03:24:13.052Z,109.37
2023-05-21T03:25:13.079Z,110.31
2023-05-21T03:26:13.041Z,110.44
2023-05-21T03:27:13.048Z,111.12
2023-05-21T03:28:13.019Z,110.69
2023-05-21T03:29:13.015Z,110.89
2023-05-21T03:30:13.012Z,113.01
2023-05-21T03:31:13.004Z,112.54
2023-05-21T03:32:13.089Z,112.97
2023-05-21T03:33:12.991Z,107.76
2023-05-21T03:34:13.887Z,109.50
2023-05-21T03:35:12.980Z,112.15
2023-05-21T03:36:12.992Z,111.57
2023-05-21T03:37:12.967Z,111.27
2023-05-21T03:38:13.043Z,112.18
2023-05-21T03:39:12.940Z,107.64
2023-05-21T03:40:13.911Z,111.12
2023-05-21T03:41:12.938Z,107.98
2023-05-21T03:42:12.931Z,109.80
2023-05-21T03:43:12.928Z,108.86
2023-05-21T03:44:12.901Z,108.92
2023-05-21T03:45:12.900Z,110.06
2023-05-21T03:46:12.954Z,108.76
2023-05-21T03:47:12.890Z,109.10
2023-05-21T03:48:12.882Z,107.98
2023-05-21T03:49:12.887Z,110.01
2023-05-21T03:50:12.891Z,110.37
2023-05-21T03:51:12.871Z,109.02
2023-05-21T03:52:12.857Z,108.71
2023-05-21T03:53:12.859Z,110.10
2023-05-21T03:54:12.855Z,109.04
2023-05-21T03:55:12.837Z,110.13
2023-05-21T03:56:12.841Z,108.76
2023-05-21T03:57:12.823Z,108.92
2023-05-21T03:58:12.812Z,110.23
2023-05-21T03:59:12.813Z,110.22
2023-05-21T04:00:12.799Z,110.27
2023-05-21T04:01:12.810Z,110.54
2023-05-21T04:02:12.820Z,108.39
2023-05-21T04:03:13.586Z,108.57
2023-05-21T04:04:12.895Z,108.70
2023-05-21T04:05:12.775Z,107.73
2023-05-21T04:06:12.844Z,110.01
2023-05-21T04:07:12.753Z,109.21
2023-05-21T04:08:12.752Z,109.40
2023-05-21T04:09:12.738Z,107.45
2023-05-21T04:10:12.736Z,109.28
2023-05-21T04:11:12.768Z,110.26
2023-05-21T04:12:12.765Z,109.64
2023-05-21T04:13:12.710Z,109.89
2023-05-21T04:14:12.703Z,109.65
2023-05-21T04:15:12.709Z,106.71
2023-05-21T04:16:12.794Z,109.54
2023-05-21T04:17:12.745Z,107.06
2023-05-21T04:18:12.679Z,105.53
2023-05-21T04:19:12.741Z,108.54
2023-05-21T04:20:12.664Z,108.39
2023-05-21T04:21:12.677Z,106.57
2023-05-21T04:22:12.662Z,105.35
2023-05-21T04:23:12.638Z,106.81
2023-05-21T04:24:12.634Z,107.06
2023-05-21T04:25:12.629Z,108.58
2023-05-21T04:26:12.621Z,106.96
2023-05-21T04:27:12.631Z,111.24
2023-05-21T04:28:12.607Z,110.00
2023-05-21T04:29:12.612Z,107.95
2023-05-21T04:30:12.598Z,105.11
2023-05-21T04:31:12.622Z,105.54
2023-05-21T04:32:12.594Z,106.48
2023-05-21T04:33:12.590Z,107.36
2023-05-21T04:34:12.567Z,106.93
2023-05-21T04:35:12.558Z,107.33
2023-05-21T04:36:12.557Z,107.17
2023-05-21T04:37:12.565Z,107.26
2023-05-21T04:38:12.535Z,108.81
2023-05-21T04:39:12.554Z,106.60
2023-05-21T04:40:12.527Z,107.09
2023-05-21T04:41:12.532Z,107.94
2023-05-21T04:42:12.525Z,107.71
2023-05-21T04:43:12.503Z,107.22
2023-05-21T04:44:12.498Z,103.87
2023-05-21T04:45:12.488Z,106.93
2023-05-21T04:46:13.418Z,105.09
2023-05-21T04:47:12.484Z,105.35
2023-05-21T04:48:12.471Z,107.04
2023-05-21T04:49:12.464Z,108.43
2023-05-21T04:50:12.515Z,104.88
2023-05-21T04:51:12.453Z,108.15
2023-05-21T04:52:12.438Z,105.93
2023-05-21T04:53:12.429Z,107.98
2023-05-21T04:54:12.442Z,106.82
2023-05-21T04:55:12.427Z,107.38
2023-05-21T04:56:12.414Z,105.44
2023-05-21T04:57:12.411Z,106.64
2023-05-21T04:58:12.418Z,105.91
2023-05-21T04:59:12.382Z,104.85
2023-05-21T05:00:12.401Z,105.37
2023-05-21T05:01:12.444Z,104.92
2023-05-21T05:02:12.372Z,106.46
2023-05-21T05:03:12.433Z,105.28
2023-05-21T05:04:12.394Z,106.67
2023-05-21T05:05:12.423Z,106.60
2023-05-21T05:06:12.462Z,102.55
2023-05-21T05:07:12.475Z,105.97
2023-05-21T05:08:15.834Z,103.99
2023-05-21T05:09:12.503Z,106.38
2023-05-21T05:10:12.481Z,103.40
2023-05-21T05:11:12.491Z,102.76
2023-05-21T05:12:12.481Z,102.28
2023-05-21T05:13:12.498Z,102.84
2023-05-21T05:14:12.471Z,105.82
2023-05-21T05:15:12.471Z,103.99
2023-05-21T05:16:12.463Z,103.67
2023-05-21T05:17:12.447Z,103.28
2023-05-21T05:18:12.437Z,103.82
2023-05-21T05:19:12.436Z,101.52
2023-05-21T05:20:12.426Z,102.10
2023-05-21T05:21:12.421Z,100.18
2023-05-21T05:22:13.535Z,103.49
2023-05-21T05:23:12.411Z,100.77
2023-05-21T05:24:12.403Z,99.75
2023-05-21T05:25:12.417Z,103.25
2023-05-21T05:26:12.407Z,98.68
2023-05-21T05:27:12.364Z,102.28
2023-05-21T05:28:12.504Z,101.05
2023-05-21T05:29:12.361Z,100.42
2023-05-21T05:30:12.364Z,104.16
2023-05-21T05:31:12.396Z,99.57
2023-05-21T05:32:12.353Z,100.08
2023-05-21T05:33:12.341Z,100.79
2023-05-21T05:34:12.332Z,99.03
2023-05-21T05:35:12.328Z,97.38
2023-05-21T05:36:12.338Z,97.10
2023-05-21T05:37:12.322Z,99.64
2023-05-21T05:38:12.342Z,102.47
2023-05-21T05:39:12.315Z,102.47
2023-05-21T05:40:12.366Z,101.23
2023-05-21T05:41:12.417Z,99.29
2023-05-21T05:42:12.464Z,100.76
2023-05-21T05:43:12.532Z,98.31
2023-05-21T05:44:12.645Z,99.93
2023-05-21T05:45:12.646Z,100.90
2023-05-21T05:46:12.746Z,100.52
2023-05-21T05:47:12.739Z,97.20
2023-05-21T05:48:12.800Z,100.82
2023-05-21T05:49:12.853Z,98.43
2023-05-21T05:50:12.897Z,94.83
2023-05-21T05:51:12.941Z,99.33
2023-05-21T05:52:12.998Z,97.52
2023-05-21T05:53:13.044Z,94.76
2023-05-21T05:54:13.089Z,97.30
2023-05-21T05:55:13.130Z,98.64
2023-05-21T05:56:13.183Z,93.82
2023-05-21T05:57:13.228Z,96.93
2023-05-21T05:58:13.275Z,98.90
2023-05-21T05:59:13.327Z,94.48
2023-05-21T06:00:13.374Z,96.92
2023-05-21T06:01:13.428Z,94.59
2023-05-21T06:02:13.494Z,95.38
2023-05-21T06:03:13.564Z,90.21
2023-05-21T06:04:13.586Z,93.49
2023-05-21T06:05:13.608Z,96.79
2023-05-21T06:06:13.800Z,94.44
2023-05-21T06:07:13.717Z,92.97
2023-05-21T06:08:13.772Z,95.37
2023-05-21T06:09:13.812Z,97.07
2023-05-21T06:10:13.871Z,93.13
2023-05-21T06:11:13.908Z,94.40
2023-05-21T06:12:15.074Z,93.43
2023-05-21T06:13:13.998Z,93.50
2023-05-21T06:14:14.054Z,94.30
2023-05-21T06:15:14.092Z,92.28
2023-05-21T06:16:14.301Z,91.29
2023-05-21T06:17:14.196Z,93.76
2023-05-21T06:18:14.220Z,90.61
2023-05-21T06:19:14.312Z,94.62
2023-05-21T06:20:14.312Z,92.57
2023-05-21T06:21:14.352Z,93.52
2023-05-21T06:22:14.398Z,94.45
2023-05-21T06:23:14.436Z,89.09
2023-05-21T06:24:14.477Z,94.22
2023-05-21T06:25:14.572Z,89.50
2023-05-21T06:26:14.563Z,90.06
2023-05-21T06:27:14.603Z,87.41
2023-05-21T06:28:14.643Z,89.07
2023-05-21T06:29:15.582Z,90.43
2023-05-21T06:30:15.474Z,89.11
2023-05-21T06:31:14.748Z,88.53
2023-05-21T06:32:14.789Z,86.69
2023-05-21T06:33:14.853Z,89.88
2023-05-21T06:34:14.845Z,86.41
2023-05-21T06:35:14.885Z,86.45
2023-05-21T06:36:14.905Z,85.99
2023-05-21T06:37:14.945Z,82.55
2023-05-21T06:38:14.967Z,84.84
2023-05-21T06:39:14.991Z,85.61
2023-05-21T06:40:15.037Z,85.21
2023-05-21T06:41:15.062Z,85.23
2023-05-21T06:42:15.094Z,86.17
2023-05-21T06:43:15.121Z,83.62
2023-05-21T06:44:15.158Z,86.42
2023-05-21T06:45:15.206Z,83.70
2023-05-21T06:46:15.244Z,86.14
2023-05-21T06:47:15.225Z,82.86
2023-05-21T06:48:15.251Z,81.57
2023-05-21T06:49:15.275Z,82.36
2023-05-21T06:50:15.293Z,82.24
2023-05-21T06:51:15.318Z,83.61
2023-05-21T06:52:15.335Z,79.98
2023-05-21T06:53:15.350Z,83.86
2023-05-21T06:54:15.415Z,82.28
2023-05-21T06:55:15.952Z,82.03
2023-05-21T06:56:15.412Z,80.89
2023-05-21T06:57:15.437Z,84.52
2023-05-21T06:58:15.449Z,85.29
2023-05-21T06:59:15.469Z,86.36
2023-05-21T07:00:15.478Z,84.10
2023-05-21T07:01:15.626Z,85.84
2023-05-21T07:02:15.603Z,87.10
2023-05-21T07:03:15.693Z,87.11
2023-05-21T07:04:15.595Z,91.25
2023-05-21T07:05:15.694Z,90.07
2023-05-21T07:06:15.618Z,87.62
2023-05-21T07:07:15.610Z,88.85
2023-05-21T07:08:15.607Z,89.66
2023-05-21T07:09:15.621Z,89.15
2023-05-21T07:10:16.455Z,88.92
2023-05-21T07:11:15.675Z,92.27
2023-05-21T07:12:15.703Z,90.38
2023-05-21T07:13:15.767Z,91.28
2023-05-21T07:14:15.818Z,88.95
2023-05-21T07:15:15.876Z,93.22
2023-05-21T07:16:15.980Z,91.16
2023-05-21T07:17:16.002Z,92.73
2023-05-21T07:18:16.031Z,92.68
2023-05-21T07:19:16.099Z,90.61
2023-05-21T07:20:16.100Z,94.11
2023-05-21T07:21:16.160Z,89.11
2023-05-21T07:22:16.194Z,91.02
2023-05-21T07:23:16.252Z,91.56
2023-05-21T07:24:16.960Z,91.41
2023-05-21T07:25:16.443Z,94.08
2023-05-21T07:26:16.439Z,91.03
2023-05-21T07:27:25.297Z,91.22
2023-05-21T07:28:17.501Z,91.37
2023-05-21T07:29:16.484Z,91.55
2023-05-21T07:30:16.476Z,92.23
2023-05-21T07:31:16.503Z,91.96
2023-05-21T07:32:16.480Z,93.96
2023-05-21T07:33:16.476Z,92.61
2023-05-21T07:34:16.447Z,92.47
2023-05-21T07:35:16.453Z,92.55
2023-05-21T07:36:16.495Z,93.20
2023-05-21T07:37:16.468Z,90.70
2023-05-21T07:38:16.524Z,90.94
2023-05-21T07:39:16.558Z,92.05
2023-05-21T07:40:16.631Z,92.08
2023-05-21T07:41:18.663Z,93.23
2023-05-21T07:42:16.687Z,94.56
2023-05-21T07:43:16.715Z,90.42
2023-05-21T07:44:16.755Z,95.34
2023-05-21T07:45:16.792Z,92.50
2023-05-21T07:46:16.881Z,94.70
2023-05-21T07:47:16.868Z,93.18
2023-05-21T07:48:16.910Z,93.53
2023-05-21T07:49:17.122Z,93.31
2023-05-21T07:50:16.980Z,91.16
2023-05-21T07:51:17.020Z,94.46
2023-05-21T07:52:17.062Z,94.44
2023-05-21T07:53:17.090Z,93.91
2023-05-21T07:54:17.117Z,94.30
2023-05-21T07:55:17.151Z,95.72
2023-05-21T07:56:17.241Z,96.41
2023-05-21T07:57:17.217Z,93.30
2023-05-21T07:58:17.242Z,93.32
2023-05-21T07:59:17.274Z,92.61
2023-05-21T08:00:17.310Z,94.32
2023-05-21T08:01:17.386Z,94.04
2023-05-21T08:02:17.396Z,95.61
2023-05-21T08:03:17.590Z,95.24
2023-05-21T08:04:17.568Z,95.03
2023-05-21T08:05:17.521Z,94.25
2023-05-21T08:06:17.545Z,94.12
2023-05-21T08:07:17.570Z,93.14
2023-05-21T08:08:17.613Z,93.86
2023-05-21T08:09:17.642Z,93.96
2023-05-21T08:10:19.240Z,94.34
2023-05-21T08:11:17.727Z,95.17
2023-05-21T08:12:17.800Z,95.24
2023-05-21T08:13:17.814Z,96.92
2023-05-21T08:14:17.832Z,94.76
2023-05-21T08:15:17.865Z,95.26
2023-05-21T08:16:17.956Z,95.13
2023-05-21T08:17:17.952Z,95.15
2023-05-21T08:18:17.998Z,97.42
2023-05-21T08:19:18.054Z,95.66
2023-05-21T08:20:18.066Z,95.74
2023-05-21T08:21:18.103Z,94.92
2023-05-21T08:22:18.138Z,96.13
2023-05-21T08:23:18.179Z,95.46
2023-05-21T08:24:18.222Z,96.75
2023-05-21T08:25:18.257Z,95.48
2023-05-21T08:26:18.301Z,95.47
2023-05-21T08:27:18.335Z,96.61
2023-05-21T08:28:18.380Z,95.92
2023-05-21T08:29:18.413Z,98.32
2023-05-21T08:30:18.485Z,97.52
2023-05-21T08:31:18.517Z,97.47
2023-05-21T08:32:18.523Z,99.59
2023-05-21T08:33:20.831Z,97.64
2023-05-21T08:34:18.560Z,98.46
2023-05-21T08:35:18.529Z,99.16
2023-05-21T08:36:18.508Z,100.18
2023-05-21T08:37:18.527Z,97.28
2023-05-21T08:38:18.524Z,98.84
2023-05-21T08:39:18.509Z,98.46
2023-05-21T08:40:18.494Z,99.61
2023-05-21T08:41:18.478Z,99.42
2023-05-21T08:42:32.944Z,99.99
2023-05-21T08:43:19.463Z,100.18
2023-05-21T08:44:18.462Z,100.57
2023-05-21T08:45:18.456Z,100.92
2023-05-21T08:46:18.554Z,100.83
2023-05-21T08:47:18.445Z,98.85
2023-05-21T08:48:18.438Z,100.30
2023-05-21T08:49:19.014Z,99.81
2023-05-21T08:50:18.422Z,101.11
2023-05-21T08:51:18.412Z,100.52
2023-05-21T08:52:18.412Z,99.06
2023-05-21T08:53:27.508Z,98.72
2023-05-21T08:54:19.399Z,98.92
2023-05-21T08:55:18.397Z,99.35
2023-05-21T08:56:18.461Z,99.96
2023-05-21T08:57:18.375Z,100.14
2023-05-21T08:58:18.370Z,99.80
2023-05-21T08:59:18.364Z,101.25
2023-05-21T09:00:18.369Z,102.14
2023-05-21T09:01:18.398Z,102.52
2023-05-21T09:02:18.367Z,102.49
2023-05-21T09:03:18.485Z,101.35
2023-05-21T09:04:20.862Z,102.36
2023-05-21T09:05:18.323Z,102.63
2023-05-21T09:06:18.315Z,101.60
2023-05-21T09:07:18.320Z,101.50
2023-05-21T09:08:18.312Z,102.64
2023-05-21T09:09:18.315Z,101.27
2023-05-21T09:10:18.298Z,101.73
2023-05-21T09:11:18.373Z,100.95
2023-05-21T09:12:18.283Z,100.53
2023-05-21T09:13:18.275Z,99.28
2023-05-21T09:14:18.258Z,97.56
2023-05-21T09:15:18.274Z,99.77
2023-05-21T09:16:18.294Z,99.55
2023-05-21T09:17:18.285Z,99.35
2023-05-21T09:18:18.238Z,100.68
2023-05-21T09:19:18.287Z,99.76
2023-05-21T09:20:18.241Z,98.21
2023-05-21T09:21:18.225Z,99.36
2023-05-21T09:22:18.214Z,100.17
2023-05-21T09:23:18.219Z,99.42
2023-05-21T09:24:18.215Z,100.72
2023-05-21T09:25:18.265Z,99.48
2023-05-21T09:26:18.195Z,101.09
2023-05-21T09:27:19.065Z,100.65
2023-05-21T09:28:18.181Z,102.46
2023-05-21T09:29:18.178Z,101.17
2023-05-21T09:30:18.172Z,101.34
2023-05-21T09:31:18.173Z,102.49
2023-05-21T09:32:18.143Z,100.58
2023-05-21T09:33:18.143Z,102.11
2023-05-21T09:34:18.130Z,100.62
2023-05-21T09:35:18.146Z,102.06
2023-05-21T09:36:18.121Z,102.39
2023-05-21T09:37:27.046Z,101.70
2023-05-21T09:38:19.132Z,101.96
2023-05-21T09:39:18.095Z,102.26
2023-05-21T09:40:18.093Z,103.17
2023-05-21T09:41:21.161Z,103.33
2023-05-21T09:42:18.082Z,101.96
2023-05-21T09:43:18.084Z,102.57
2023-05-21T09:44:18.072Z,103.52
2023-05-21T09:45:18.057Z,104.62
2023-05-21T09:46:18.064Z,106.28
2023-05-21T09:47:18.041Z,102.93
2023-05-21T09:48:18.034Z,105.31
2023-05-21T09:49:18.025Z,103.21
2023-05-21T09:50:18.051Z,105.38
2023-05-21T09:51:18.032Z,100.43
2023-05-21T09:52:18.004Z,103.38
2023-05-21T09:53:17.996Z,103.52
2023-05-21T09:54:17.991Z,104.53
2023-05-21T09:55:17.999Z,103.78
2023-05-21T09:56:17.981Z,104.86
2023-05-21T09:57:17.976Z,102.34
2023-05-21T09:58:17.976Z,103.72
2023-05-21T09:59:17.967Z,104.04
2023-05-21T10:00:17.993Z,102.42
2023-05-21T10:01:17.991Z,102.93
2023-05-21T10:02:18.037Z,102.83
2023-05-21T10:03:18.060Z,104.22
2023-05-21T10:04:17.954Z,103.12
2023-05-21T10:05:17.936Z,104.93
2023-05-21T10:06:17.936Z,105.58
2023-05-21T10:07:17.915Z,104.08
2023-05-21T10:08:17.906Z,106.08
2023-05-21T10:09:17.900Z,104.64
2023-05-21T10:10:17.898Z,105.19
2023-05-21T10:11:17.903Z,105.86
2023-05-21T10:12:17.901Z,106.33
2023-05-21T10:13:17.866Z,105.20
2023-05-21T10:14:17.863Z,105.96
2023-05-21T10:15:17.854Z,104.30
2023-05-21T10:16:17.872Z,104.89
2023-05-21T10:17:17.851Z,105.58
2023-05-21T10:18:17.834Z,103.13
2023-05-21T10:19:17.865Z,104.97
2023-05-21T10:20:17.847Z,103.08
2023-05-21T10:21:17.814Z,104.00
2023-05-21T10:22:17.811Z,102.80
2023-05-21T10:23:17.795Z,103.66
2023-05-21T10:24:17.789Z,104.53
2023-05-21T10:25:17.791Z,104.53
2023-05-21T10:26:17.780Z,104.26
2023-05-21T10:27:17.768Z,103.73
2023-05-21T10:28:17.762Z,105.86
2023-05-21T10:29:19.651Z,104.99
2023-05-21T10:30:17.750Z,105.49
2023-05-21T10:31:17.741Z,104.53
2023-05-21T10:32:17.843Z,106.49
2023-05-21T10:33:17.758Z,107.55
2023-05-21T10:34:17.751Z,107.59
2023-05-21T10:35:17.723Z,109.56
2023-05-21T10:36:17.710Z,108.47
2023-05-21T10:37:17.774Z,109.33
2023-05-21T10:38:17.685Z,107.81
2023-05-21T10:39:17.708Z,106.38
2023-05-21T10:40:17.750Z,108.95
2023-05-21T10:41:18.053Z,109.45
2023-05-21T10:42:17.811Z,109.42
2023-05-21T10:43:17.905Z,111.16
2023-05-21T10:44:17.854Z,109.64
2023-05-21T10:45:17.890Z,111.48
2023-05-21T10:46:17.953Z,111.16
2023-05-21T10:47:17.972Z,111.35
2023-05-21T10:48:18.000Z,111.25
2023-05-21T10:49:18.015Z,111.85
2023-05-21T10:50:18.047Z,109.47
2023-05-21T10:51:18.073Z,110.77
2023-05-21T10:52:18.108Z,109.27
2023-05-21T10:53:18.145Z,110.28
2023-05-21T10:54:18.182Z,109.62
2023-05-21T10:55:18.252Z,108.73
2023-05-21T10:56:18.248Z,110.19
2023-05-21T10:57:19.047Z,108.82
2023-05-21T10:58:18.308Z,111.75
2023-05-21T10:59:18.394Z,111.90
2023-05-21T11:00:18.387Z,110.29
2023-05-21T11:01:18.424Z,112.66
2023-05-21T11:02:18.483Z,112.10
2023-05-21T11:03:18.582Z,112.57
2023-05-21T11:04:18.524Z,112.83
2023-05-21T11:05:19.560Z,110.68
2023-05-21T11:06:18.601Z,112.49
2023-05-21T11:07:18.699Z,113.04
2023-05-21T11:08:18.692Z,112.89
2023-05-21T11:09:18.766Z,113.78
2023-05-21T11:10:18.828Z,112.14
2023-05-21T11:11:18.791Z,110.96
2023-05-21T11:12:18.846Z,116.48
2023-05-21T11:13:18.876Z,112.06
2023-05-21T11:14:20.812Z,115.34
2023-05-21T11:15:18.944Z,113.05
2023-05-21T11:16:19.054Z,113.58
2023-05-21T11:17:19.683Z,115.62
2023-05-21T11:18:19.085Z,113.85
2023-05-21T11:19:19.252Z,113.40
2023-05-21T11:20:19.166Z,113.88
2023-05-21T11:21:19.214Z,112.95
2023-05-21T11:22:19.250Z,112.72
2023-05-21T11:23:19.290Z,113.11
2023-05-21T11:24:19.353Z,112.53
2023-05-21T11:25:19.401Z,115.67
2023-05-21T11:26:19.434Z,114.41
2023-05-21T11:27:19.475Z,113.31
2023-05-21T11:28:19.524Z,115.93
2023-05-21T11:29:20.553Z,116.00
2023-05-21T11:30:19.624Z,113.04
2023-05-21T11:31:19.694Z,113.65
2023-05-21T11:32:19.700Z,117.66
2023-05-21T11:33:19.723Z,114.67
2023-05-21T11:34:19.768Z,113.55
2023-05-21T11:35:19.809Z,116.22
2023-05-21T11:36:19.936Z,116.42
2023-05-21T11:37:19.926Z,116.66
2023-05-21T11:38:19.920Z,116.92
2023-05-21T11:39:20.031Z,115.35
2023-05-21T11:40:19.991Z,118.64
2023-05-21T11:41:20.048Z,116.63
2023-05-21T11:42:20.069Z,117.08
2023-05-21T11:43:20.112Z,118.37
2023-05-21T11:44:20.164Z,115.90
2023-05-21T11:45:20.198Z,119.48
2023-05-21T11:46:20.291Z,118.17
2023-05-21T11:47:20.296Z,115.44
2023-05-21T11:48:20.309Z,117.01
2023-05-21T11:49:20.354Z,115.99
2023-05-21T11:50:20.406Z,114.19
2023-05-21T11:51:20.423Z,116.09
2023-05-21T11:52:20.468Z,115.40
2023-05-21T11:53:20.504Z,115.76
2023-05-21T11:54:20.548Z,116.75
2023-05-21T11:55:20.658Z,116.91
2023-05-21T11:56:20.618Z,114.66
2023-05-21T11:57:20.713Z,114.95
2023-05-21T11:58:20.701Z,116.31
2023-05-21T11:59:20.727Z,113.56
2023-05-21T12:00:20.760Z,114.67
2023-05-21T12:01:20.807Z,114.16
2023-05-21T12:02:20.988Z,113.46
2023-05-21T12:03:21.615Z,114.34
2023-05-21T12:04:20.960Z,114.85
2023-05-21T12:05:21.055Z,114.51
2023-05-21T12:06:21.131Z,114.96
2023-05-21T12:07:21.098Z,116.02
2023-05-21T12:08:21.140Z,116.86
2023-05-21T12:09:21.202Z,114.84
2023-05-21T12:10:21.260Z,118.03
2023-05-21T12:11:21.312Z,115.31
2023-05-21T12:12:21.363Z,116.81
2023-05-21T12:13:21.392Z,115.78
2023-05-21T12:14:21.476Z,117.73
2023-05-21T12:15:21.504Z,116.81
2023-05-21T12:16:21.603Z,117.63
2023-05-21T12:17:21.623Z,117.91
2023-05-21T12:18:21.694Z,116.11
2023-05-21T12:19:21.804Z,114.25
2023-05-21T12:20:21.777Z,115.72
2023-05-21T12:21:21.834Z,113.13
2023-05-21T12:22:21.887Z,111.45
2023-05-21T12:23:21.940Z,112.53
2023-05-21T12:24:21.989Z,116.30
2023-05-21T12:25:22.063Z,115.32
2023-05-21T12:26:22.110Z,115.72
2023-05-21T12:27:22.159Z,115.89
2023-05-21T12:28:22.207Z,118.50
2023-05-21T12:29:22.274Z,116.85
2023-05-21T12:30:22.341Z,114.64
2023-05-21T12:31:22.435Z,117.33
2023-05-21T12:32:22.521Z,117.38
2023-05-21T12:33:25.028Z,114.81
2023-05-21T12:34:22.576Z,117.08